sensor_id;sensor_type;location;lat;lon;timestamp;temperature;humidity
23532;DHT22;11943;52.270;20.978;2023-06-24T00:00:56;19.20;99.90
23532;DHT22;11943;52.270;20.978;2023-06-24T00:03:22;19.20;99.90
23532;DHT22;11943;52.270;20.978;2023-06-24T00:05:48;19.20;99.90
23532;DHT22;11943;52.270;20.978;2023-06-24T00:08:18;19.20;99.90
23532;DHT22;11943;52.270;20.978;2023-06-24T00:10:48;19.20;99.90
23532;DHT22;11943;52.270;20.978;2023-06-24T00:13:15;19.20;99.90
23532;DHT22;11943;52.270;20.978;2023-06-24T00:15:41;19.20;99.90
23532;DHT22;11943;52.270;20.978;2023-06-24T00:18:09;19.30;99.90
23532;DHT22;11943;52.270;20.978;2023-06-24T00:20:35;19.20;99.90
23532;DHT22;11943;52.270;20.978;2023-06-24T00:23:01;19.20;99.90
23532;DHT22;11943;52.270;20.978;2023-06-24T00:25:26;19.20;99.90
23532;DHT22;11943;52.270;20.978;2023-06-24T00:27:52;19.20;99.90
23532;DHT22;11943;52.270;20.978;2023-06-24T00:30:18;19.20;99.90
23532;DHT22;11943;52.270;20.978;2023-06-24T00:32:44;19.20;99.90
23532;DHT22;11943;52.270;20.978;2023-06-24T00:35:10;19.10;99.90
23532;DHT22;11943;52.270;20.978;2023-06-24T00:37:38;19.10;99.90
23532;DHT22;11943;52.270;20.978;2023-06-24T00:40:04;19.10;99.90
23532;DHT22;11943;52.270;20.978;2023-06-24T00:42:30;19.10;99.90
23532;DHT22;11943;52.270;20.978;2023-06-24T00:44:56;19.10;99.90
23532;DHT22;11943;52.270;20.978;2023-06-24T00:47:22;19.10;99.90
23532;DHT22;11943;52.270;20.978;2023-06-24T00:49:49;19.10;99.90
23532;DHT22;11943;52.270;20.978;2023-06-24T00:52:16;19.10;99.90
23532;DHT22;11943;52.270;20.978;2023-06-24T00:54:44;19.10;99.90
23532;DHT22;11943;52.270;20.978;2023-06-24T00:57:10;19.10;99.90
23532;DHT22;11943;52.270;20.978;2023-06-24T00:59:38;19.10;99.90
23532;DHT22;11943;52.270;20.978;2023-06-24T01:02:04;19.10;99.90
23532;DHT22;11943;52.270;20.978;2023-06-24T01:04:31;19.00;99.90
23532;DHT22;11943;52.270;20.978;2023-06-24T01:06:59;19.00;99.90
23532;DHT22;11943;52.270;20.978;2023-06-24T01:09:25;19.00;99.90
23532;DHT22;11943;52.270;20.978;2023-06-24T01:11:51;19.00;99.90
23532;DHT22;11943;52.270;20.978;2023-06-24T01:14:17;19.10;99.90
23532;DHT22;11943;52.270;20.978;2023-06-24T01:17:05;19.00;99.90
23532;DHT22;11943;52.270;20.978;2023-06-24T01:31:34;18.90;99.90
23532;DHT22;11943;52.270;20.978;2023-06-24T01:37:41;18.80;99.90
23532;DHT22;11943;52.270;20.978;2023-06-24T01:42:39;18.70;99.90
23532;DHT22;11943;52.270;20.978;2023-06-24T01:45:07;18.60;99.90
23532;DHT22;11943;52.270;20.978;2023-06-24T01:47:35;18.60;99.90
23532;DHT22;11943;52.270;20.978;2023-06-24T01:50:02;18.60;99.90
23532;DHT22;11943;52.270;20.978;2023-06-24T01:52:29;18.50;99.90
23532;DHT22;11943;52.270;20.978;2023-06-24T01:54:58;18.50;99.90
23532;DHT22;11943;52.270;20.978;2023-06-24T01:57:25;18.40;99.90
23532;DHT22;11943;52.270;20.978;2023-06-24T01:59:53;18.40;99.90
23532;DHT22;11943;52.270;20.978;2023-06-24T02:02:21;18.30;99.90
23532;DHT22;11943;52.270;20.978;2023-06-24T02:04:49;18.30;99.90
23532;DHT22;11943;52.270;20.978;2023-06-24T02:07:16;18.20;99.90
23532;DHT22;11943;52.270;20.978;2023-06-24T02:09:44;18.20;99.90
23532;DHT22;11943;52.270;20.978;2023-06-24T02:12:11;18.20;99.90
23532;DHT22;11943;52.270;20.978;2023-06-24T02:14:38;18.20;99.90
23532;DHT22;11943;52.270;20.978;2023-06-24T02:17:05;18.10;99.90
23532;DHT22;11943;52.270;20.978;2023-06-24T02:19:32;18.10;99.90
23532;DHT22;11943;52.270;20.978;2023-06-24T02:21:59;18.10;99.90
23532;DHT22;11943;52.270;20.978;2023-06-24T02:24:27;18.20;99.90
23532;DHT22;11943;52.270;20.978;2023-06-24T02:26:53;18.20;99.90
23532;DHT22;11943;52.270;20.978;2023-06-24T02:29:20;18.20;99.90
23532;DHT22;11943;52.270;20.978;2023-06-24T02:31:47;18.20;99.90
23532;DHT22;11943;52.270;20.978;2023-06-24T02:34:13;18.20;99.90
23532;DHT22;11943;52.270;20.978;2023-06-24T02:36:39;18.20;99.90
23532;DHT22;11943;52.270;20.978;2023-06-24T02:39:05;18.20;99.90
23532;DHT22;11943;52.270;20.978;2023-06-24T02:41:30;18.20;99.90
23532;DHT22;11943;52.270;20.978;2023-06-24T02:43:56;18.20;99.90
23532;DHT22;11943;52.270;20.978;2023-06-24T02:46:21;18.20;99.90
23532;DHT22;11943;52.270;20.978;2023-06-24T02:48:49;18.20;99.90
23532;DHT22;11943;52.270;20.978;2023-06-24T02:51:16;18.20;99.90
23532;DHT22;11943;52.270;20.978;2023-06-24T02:53:42;18.20;99.90
23532;DHT22;11943;52.270;20.978;2023-06-24T02:56:09;18.20;99.90
23532;DHT22;11943;52.270;20.978;2023-06-24T02:58:37;18.20;99.90
23532;DHT22;11943;52.270;20.978;2023-06-24T03:01:03;18.20;99.90
23532;DHT22;11943;52.270;20.978;2023-06-24T03:03:29;18.30;99.90
23532;DHT22;11943;52.270;20.978;2023-06-24T03:05:56;18.20;99.90
23532;DHT22;11943;52.270;20.978;2023-06-24T03:08:23;18.30;99.90
23532;DHT22;11943;52.270;20.978;2023-06-24T03:10:50;18.30;99.90
23532;DHT22;11943;52.270;20.978;2023-06-24T03:13:16;18.30;99.90
23532;DHT22;11943;52.270;20.978;2023-06-24T03:15:41;18.30;99.90
23532;DHT22;11943;52.270;20.978;2023-06-24T03:18:07;18.40;99.90
23532;DHT22;11943;52.270;20.978;2023-06-24T03:20:33;18.40;99.90
23532;DHT22;11943;52.270;20.978;2023-06-24T03:23:08;18.40;99.90
23532;DHT22;11943;52.270;20.978;2023-06-24T03:25:34;18.40;99.90
23532;DHT22;11943;52.270;20.978;2023-06-24T03:28:01;18.40;99.90
23532;DHT22;11943;52.270;20.978;2023-06-24T03:30:29;18.50;99.90
23532;DHT22;11943;52.270;20.978;2023-06-24T03:32:54;18.50;99.90
23532;DHT22;11943;52.270;20.978;2023-06-24T03:35:20;18.50;99.90
23532;DHT22;11943;52.270;20.978;2023-06-24T03:37:47;18.60;99.90
23532;DHT22;11943;52.270;20.978;2023-06-24T03:40:12;18.60;99.90
23532;DHT22;11943;52.270;20.978;2023-06-24T03:42:38;18.60;99.90
23532;DHT22;11943;52.270;20.978;2023-06-24T03:45:04;18.60;99.90
23532;DHT22;11943;52.270;20.978;2023-06-24T03:47:30;18.60;99.90
23532;DHT22;11943;52.270;20.978;2023-06-24T03:49:55;18.70;99.90
23532;DHT22;11943;52.270;20.978;2023-06-24T03:52:21;18.70;99.90
23532;DHT22;11943;52.270;20.978;2023-06-24T03:54:46;18.80;99.90
23532;DHT22;11943;52.270;20.978;2023-06-24T03:57:13;18.70;99.90
23532;DHT22;11943;52.270;20.978;2023-06-24T03:59:38;18.80;99.90
23532;DHT22;11943;52.270;20.978;2023-06-24T04:02:05;18.80;99.90
23532;DHT22;11943;52.270;20.978;2023-06-24T04:04:36;18.90;99.90
23532;DHT22;11943;52.270;20.978;2023-06-24T04:07:02;18.90;99.90
23532;DHT22;11943;52.270;20.978;2023-06-24T04:09:29;19.00;99.90
23532;DHT22;11943;52.270;20.978;2023-06-24T04:11:55;19.10;99.90
23532;DHT22;11943;52.270;20.978;2023-06-24T04:14:20;19.10;99.90
23532;DHT22;11943;52.270;20.978;2023-06-24T04:16:46;19.10;99.90
23532;DHT22;11943;52.270;20.978;2023-06-24T04:19:12;19.20;99.90
23532;DHT22;11943;52.270;20.978;2023-06-24T04:21:37;19.10;99.90
23532;DHT22;11943;52.270;20.978;2023-06-24T04:24:03;19.10;99.90
23532;DHT22;11943;52.270;20.978;2023-06-24T04:26:29;19.20;99.90
23532;DHT22;11943;52.270;20.978;2023-06-24T04:28:55;19.30;99.90
23532;DHT22;11943;52.270;20.978;2023-06-24T04:31:21;19.50;99.90
23532;DHT22;11943;52.270;20.978;2023-06-24T04:33:46;19.70;99.90
23532;DHT22;11943;52.270;20.978;2023-06-24T04:36:12;19.90;99.90
23532;DHT22;11943;52.270;20.978;2023-06-24T04:38:38;20.00;99.90
23532;DHT22;11943;52.270;20.978;2023-06-24T04:41:03;20.10;99.90
23532;DHT22;11943;52.270;20.978;2023-06-24T04:43:29;20.20;99.90
23532;DHT22;11943;52.270;20.978;2023-06-24T04:45:55;20.20;99.90
23532;DHT22;11943;52.270;20.978;2023-06-24T04:48:23;20.30;99.90
23532;DHT22;11943;52.270;20.978;2023-06-24T04:50:48;20.50;99.90
23532;DHT22;11943;52.270;20.978;2023-06-24T04:53:14;20.60;99.90
23532;DHT22;11943;52.270;20.978;2023-06-24T04:55:40;20.50;99.90
23532;DHT22;11943;52.270;20.978;2023-06-24T04:58:06;20.30;99.90
23532;DHT22;11943;52.270;20.978;2023-06-24T05:00:31;20.40;99.90
23532;DHT22;11943;52.270;20.978;2023-06-24T05:02:57;20.40;99.90
23532;DHT22;11943;52.270;20.978;2023-06-24T05:05:23;20.40;99.90
23532;DHT22;11943;52.270;20.978;2023-06-24T05:07:49;20.50;99.90
23532;DHT22;11943;52.270;20.978;2023-06-24T05:10:14;20.50;99.90
23532;DHT22;11943;52.270;20.978;2023-06-24T05:12:40;20.50;99.90
23532;DHT22;11943;52.270;20.978;2023-06-24T05:15:06;20.40;99.90
23532;DHT22;11943;52.270;20.978;2023-06-24T05:17:32;20.40;99.90
23532;DHT22;11943;52.270;20.978;2023-06-24T05:19:58;20.50;99.90
23532;DHT22;11943;52.270;20.978;2023-06-24T05:22:24;20.40;99.90
23532;DHT22;11943;52.270;20.978;2023-06-24T05:24:49;20.60;99.90
23532;DHT22;11943;52.270;20.978;2023-06-24T05:27:15;20.60;99.90
23532;DHT22;11943;52.270;20.978;2023-06-24T05:29:41;20.70;99.90
23532;DHT22;11943;52.270;20.978;2023-06-24T05:32:07;20.80;99.90
23532;DHT22;11943;52.270;20.978;2023-06-24T05:34:32;21.00;99.90
23532;DHT22;11943;52.270;20.978;2023-06-24T05:36:59;21.00;99.90
23532;DHT22;11943;52.270;20.978;2023-06-24T05:39:25;21.10;99.90
23532;DHT22;11943;52.270;20.978;2023-06-24T05:41:50;21.30;99.90
23532;DHT22;11943;52.270;20.978;2023-06-24T05:44:16;21.50;99.90
23532;DHT22;11943;52.270;20.978;2023-06-24T05:46:46;21.50;99.90
23532;DHT22;11943;52.270;20.978;2023-06-24T05:49:12;21.70;99.90
23532;DHT22;11943;52.270;20.978;2023-06-24T05:51:37;21.70;99.90
23532;DHT22;11943;52.270;20.978;2023-06-24T05:54:03;21.90;99.90
23532;DHT22;11943;52.270;20.978;2023-06-24T05:56:29;22.10;99.90
23532;DHT22;11943;52.270;20.978;2023-06-24T05:58:55;22.10;99.90
23532;DHT22;11943;52.270;20.978;2023-06-24T06:01:21;22.20;99.90
23532;DHT22;11943;52.270;20.978;2023-06-24T06:03:46;22.60;99.90
23532;DHT22;11943;52.270;20.978;2023-06-24T06:06:12;22.60;99.60
23532;DHT22;11943;52.270;20.978;2023-06-24T06:08:38;23.20;98.60
23532;DHT22;11943;52.270;20.978;2023-06-24T06:11:03;23.40;96.60
23532;DHT22;11943;52.270;20.978;2023-06-24T06:13:29;23.60;95.40
23532;DHT22;11943;52.270;20.978;2023-06-24T06:15:56;23.90;95.20
23532;DHT22;11943;52.270;20.978;2023-06-24T06:18:22;23.70;95.10
23532;DHT22;11943;52.270;20.978;2023-06-24T06:20:47;23.40;95.50
23532;DHT22;11943;52.270;20.978;2023-06-24T06:23:13;23.30;95.90
23532;DHT22;11943;52.270;20.978;2023-06-24T06:25:39;23.20;96.60
23532;DHT22;11943;52.270;20.978;2023-06-24T06:28:05;22.80;97.40
23532;DHT22;11943;52.270;20.978;2023-06-24T06:30:30;22.90;97.90
23532;DHT22;11943;52.270;20.978;2023-06-24T06:32:56;22.80;98.60
23532;DHT22;11943;52.270;20.978;2023-06-24T06:35:22;22.60;99.00
23532;DHT22;11943;52.270;20.978;2023-06-24T06:37:47;22.70;99.40
23532;DHT22;11943;52.270;20.978;2023-06-24T06:40:21;22.80;98.90
23532;DHT22;11943;52.270;20.978;2023-06-24T06:42:47;23.00;98.80
23532;DHT22;11943;52.270;20.978;2023-06-24T06:45:13;23.20;98.60
23532;DHT22;11943;52.270;20.978;2023-06-24T06:47:39;23.30;96.90
23532;DHT22;11943;52.270;20.978;2023-06-24T06:50:05;23.20;95.80
23532;DHT22;11943;52.270;20.978;2023-06-24T06:52:31;23.10;96.90
23532;DHT22;11943;52.270;20.978;2023-06-24T06:54:56;22.80;96.80
23532;DHT22;11943;52.270;20.978;2023-06-24T06:57:22;22.90;96.60
23532;DHT22;11943;52.270;20.978;2023-06-24T06:59:48;22.90;96.70
23532;DHT22;11943;52.270;20.978;2023-06-24T07:02:16;23.10;96.70
23532;DHT22;11943;52.270;20.978;2023-06-24T07:04:42;23.30;95.30
23532;DHT22;11943;52.270;20.978;2023-06-24T07:07:08;23.40;94.30
23532;DHT22;11943;52.270;20.978;2023-06-24T07:09:34;23.30;93.80
23532;DHT22;11943;52.270;20.978;2023-06-24T07:12:01;23.30;94.20
23532;DHT22;11943;52.270;20.978;2023-06-24T07:14:26;23.40;93.50
23532;DHT22;11943;52.270;20.978;2023-06-24T07:16:52;23.50;92.70
23532;DHT22;11943;52.270;20.978;2023-06-24T07:19:17;23.60;92.80
23532;DHT22;11943;52.270;20.978;2023-06-24T07:21:43;23.90;91.90
23532;DHT22;11943;52.270;20.978;2023-06-24T07:24:09;24.10;91.70
23532;DHT22;11943;52.270;20.978;2023-06-24T07:26:35;24.10;90.20
23532;DHT22;11943;52.270;20.978;2023-06-24T07:29:00;24.10;89.90
23532;DHT22;11943;52.270;20.978;2023-06-24T07:31:26;24.30;90.70
23532;DHT22;11943;52.270;20.978;2023-06-24T07:33:52;24.10;85.30
23532;DHT22;11943;52.270;20.978;2023-06-24T07:36:17;24.10;88.10
23532;DHT22;11943;52.270;20.978;2023-06-24T07:38:44;24.20;87.50
23532;DHT22;11943;52.270;20.978;2023-06-24T07:41:09;24.10;85.50
23532;DHT22;11943;52.270;20.978;2023-06-24T07:43:35;24.10;83.00
23532;DHT22;11943;52.270;20.978;2023-06-24T07:46:01;24.00;82.70
23532;DHT22;11943;52.270;20.978;2023-06-24T07:48:27;24.10;81.70
23532;DHT22;11943;52.270;20.978;2023-06-24T07:50:53;24.10;81.80
23532;DHT22;11943;52.270;20.978;2023-06-24T07:53:19;24.20;79.80
23532;DHT22;11943;52.270;20.978;2023-06-24T07:55:44;24.20;74.90
23532;DHT22;11943;52.270;20.978;2023-06-24T07:58:10;24.50;75.30
23532;DHT22;11943;52.270;20.978;2023-06-24T08:00:36;24.50;74.10
23532;DHT22;11943;52.270;20.978;2023-06-24T08:03:03;24.40;72.10
23532;DHT22;11943;52.270;20.978;2023-06-24T08:05:28;24.20;73.30
23532;DHT22;11943;52.270;20.978;2023-06-24T08:07:54;24.10;75.70
23532;DHT22;11943;52.270;20.978;2023-06-24T08:10:20;24.20;74.80
23532;DHT22;11943;52.270;20.978;2023-06-24T08:12:45;24.40;70.60
23532;DHT22;11943;52.270;20.978;2023-06-24T08:15:11;24.10;71.10
23532;DHT22;11943;52.270;20.978;2023-06-24T08:17:37;24.10;66.80
23532;DHT22;11943;52.270;20.978;2023-06-24T08:20:03;24.10;67.50
23532;DHT22;11943;52.270;20.978;2023-06-24T08:22:29;24.40;67.30
23532;DHT22;11943;52.270;20.978;2023-06-24T08:24:56;24.70;65.50
23532;DHT22;11943;52.270;20.978;2023-06-24T08:27:21;24.60;64.00
23532;DHT22;11943;52.270;20.978;2023-06-24T08:29:47;24.70;63.10
23532;DHT22;11943;52.270;20.978;2023-06-24T08:32:13;24.70;63.80
23532;DHT22;11943;52.270;20.978;2023-06-24T08:34:39;25.00;62.60
23532;DHT22;11943;52.270;20.978;2023-06-24T08:37:04;25.10;61.20
23532;DHT22;11943;52.270;20.978;2023-06-24T08:39:30;24.90;60.00
23532;DHT22;11943;52.270;20.978;2023-06-24T08:41:56;24.70;60.90
23532;DHT22;11943;52.270;20.978;2023-06-24T08:44:21;24.40;61.20
23532;DHT22;11943;52.270;20.978;2023-06-24T08:46:48;24.50;61.70
23532;DHT22;11943;52.270;20.978;2023-06-24T08:52:13;24.80;60.10
23532;DHT22;11943;52.270;20.978;2023-06-24T08:54:40;24.80;59.70
23532;DHT22;11943;52.270;20.978;2023-06-24T08:57:06;24.80;59.10
23532;DHT22;11943;52.270;20.978;2023-06-24T08:59:36;25.00;60.20
23532;DHT22;11943;52.270;20.978;2023-06-24T09:02:02;25.10;61.90
23532;DHT22;11943;52.270;20.978;2023-06-24T09:04:28;25.20;60.10
23532;DHT22;11943;52.270;20.978;2023-06-24T09:06:54;25.10;59.30
23532;DHT22;11943;52.270;20.978;2023-06-24T09:09:21;25.10;60.80
23532;DHT22;11943;52.270;20.978;2023-06-24T09:11:58;25.20;59.80
23532;DHT22;11943;52.270;20.978;2023-06-24T09:14:28;24.80;60.40
23532;DHT22;11943;52.270;20.978;2023-06-24T09:16:56;24.70;60.40
23532;DHT22;11943;52.270;20.978;2023-06-24T09:19:26;24.70;60.20
23532;DHT22;11943;52.270;20.978;2023-06-24T09:22:06;24.30;60.70
23532;DHT22;11943;52.270;20.978;2023-06-24T09:24:36;24.20;61.80
23532;DHT22;11943;52.270;20.978;2023-06-24T09:27:03;24.00;62.60
23532;DHT22;11943;52.270;20.978;2023-06-24T09:29:33;24.00;63.50
23532;DHT22;11943;52.270;20.978;2023-06-24T09:31:58;24.20;61.80
23532;DHT22;11943;52.270;20.978;2023-06-24T09:34:28;24.30;63.20
23532;DHT22;11943;52.270;20.978;2023-06-24T09:36:58;24.40;60.10
23532;DHT22;11943;52.270;20.978;2023-06-24T09:39:25;24.60;60.80
23532;DHT22;11943;52.270;20.978;2023-06-24T09:41:57;24.80;61.60
23532;DHT22;11943;52.270;20.978;2023-06-24T09:44:24;24.90;62.00
23532;DHT22;11943;52.270;20.978;2023-06-24T09:46:51;25.10;60.30
23532;DHT22;11943;52.270;20.978;2023-06-24T09:49:18;25.10;60.60
23532;DHT22;11943;52.270;20.978;2023-06-24T09:51:48;25.20;61.20
23532;DHT22;11943;52.270;20.978;2023-06-24T09:54:15;25.10;58.80
23532;DHT22;11943;52.270;20.978;2023-06-24T09:57:01;25.00;57.90
23532;DHT22;11943;52.270;20.978;2023-06-24T09:59:28;24.80;58.10
23532;DHT22;11943;52.270;20.978;2023-06-24T10:01:55;24.70;58.60
23532;DHT22;11943;52.270;20.978;2023-06-24T10:04:21;24.50;58.80
23532;DHT22;11943;52.270;20.978;2023-06-24T10:06:48;24.60;60.50
23532;DHT22;11943;52.270;20.978;2023-06-24T10:09:14;24.80;59.60
23532;DHT22;11943;52.270;20.978;2023-06-24T10:11:43;24.80;57.80
23532;DHT22;11943;52.270;20.978;2023-06-24T10:14:09;24.80;56.40
23532;DHT22;11943;52.270;20.978;2023-06-24T10:16:35;24.70;57.40
23532;DHT22;11943;52.270;20.978;2023-06-24T10:19:02;24.60;57.80
23532;DHT22;11943;52.270;20.978;2023-06-24T10:21:51;24.60;58.60
23532;DHT22;11943;52.270;20.978;2023-06-24T10:24:28;24.60;58.50
23532;DHT22;11943;52.270;20.978;2023-06-24T10:26:55;24.70;58.30
23532;DHT22;11943;52.270;20.978;2023-06-24T10:29:36;24.80;58.90
23532;DHT22;11943;52.270;20.978;2023-06-24T10:37:04;25.00;58.10
23532;DHT22;11943;52.270;20.978;2023-06-24T10:45:13;25.20;58.10
23532;DHT22;11943;52.270;20.978;2023-06-24T10:47:47;25.20;58.70
23532;DHT22;11943;52.270;20.978;2023-06-24T10:50:18;25.30;57.40
23532;DHT22;11943;52.270;20.978;2023-06-24T10:52:46;25.10;58.20
23532;DHT22;11943;52.270;20.978;2023-06-24T10:55:18;25.30;57.30
23532;DHT22;11943;52.270;20.978;2023-06-24T10:57:45;25.00;57.50
23532;DHT22;11943;52.270;20.978;2023-06-24T11:00:11;24.70;56.00
23532;DHT22;11943;52.270;20.978;2023-06-24T11:02:37;24.50;55.60
23532;DHT22;11943;52.270;20.978;2023-06-24T11:05:04;24.40;54.60
23532;DHT22;11943;52.270;20.978;2023-06-24T11:07:32;24.20;54.10
23532;DHT22;11943;52.270;20.978;2023-06-24T11:10:03;24.20;55.80
23532;DHT22;11943;52.270;20.978;2023-06-24T11:12:35;24.10;57.10
23532;DHT22;11943;52.270;20.978;2023-06-24T11:15:11;24.10;57.20
23532;DHT22;11943;52.270;20.978;2023-06-24T11:17:38;23.90;58.60
23532;DHT22;11943;52.270;20.978;2023-06-24T11:20:08;23.80;58.50
23532;DHT22;11943;52.270;20.978;2023-06-24T11:22:34;23.60;58.50
23532;DHT22;11943;52.270;20.978;2023-06-24T11:25:00;23.60;59.80
23532;DHT22;11943;52.270;20.978;2023-06-24T11:27:30;23.60;58.60
23532;DHT22;11943;52.270;20.978;2023-06-24T11:29:58;23.50;58.60
23532;DHT22;11943;52.270;20.978;2023-06-24T11:32:43;23.50;59.80
23532;DHT22;11943;52.270;20.978;2023-06-24T11:35:11;23.40;60.20
23532;DHT22;11943;52.270;20.978;2023-06-24T11:37:41;23.40;61.20
23532;DHT22;11943;52.270;20.978;2023-06-24T11:40:10;23.30;62.40
23532;DHT22;11943;52.270;20.978;2023-06-24T11:42:38;23.30;63.10
23532;DHT22;11943;52.270;20.978;2023-06-24T11:45:07;23.20;63.70
23532;DHT22;11943;52.270;20.978;2023-06-24T11:47:36;23.30;63.70
23532;DHT22;11943;52.270;20.978;2023-06-24T11:50:03;23.30;64.00
23532;DHT22;11943;52.270;20.978;2023-06-24T11:55:11;23.20;64.20
23532;DHT22;11943;52.270;20.978;2023-06-24T12:00:23;23.30;64.70
23532;DHT22;11943;52.270;20.978;2023-06-24T12:02:53;23.40;62.40
23532;DHT22;11943;52.270;20.978;2023-06-24T12:05:30;23.50;62.50
23532;DHT22;11943;52.270;20.978;2023-06-24T12:08:01;23.50;63.40
23532;DHT22;11943;52.270;20.978;2023-06-24T12:10:28;23.40;62.30
23532;DHT22;11943;52.270;20.978;2023-06-24T12:12:55;23.20;63.40
23532;DHT22;11943;52.270;20.978;2023-06-24T12:15:21;23.20;63.30
23532;DHT22;11943;52.270;20.978;2023-06-24T12:17:47;23.10;63.20
23532;DHT22;11943;52.270;20.978;2023-06-24T12:20:14;23.10;64.20
23532;DHT22;11943;52.270;20.978;2023-06-24T12:22:40;23.20;64.00
23532;DHT22;11943;52.270;20.978;2023-06-24T12:25:06;23.20;65.40
23532;DHT22;11943;52.270;20.978;2023-06-24T12:27:32;23.20;65.00
23532;DHT22;11943;52.270;20.978;2023-06-24T12:29:59;23.20;64.80
23532;DHT22;11943;52.270;20.978;2023-06-24T12:32:25;23.30;64.70
23532;DHT22;11943;52.270;20.978;2023-06-24T12:34:51;23.20;63.70
23532;DHT22;11943;52.270;20.978;2023-06-24T12:37:17;23.10;64.50
23532;DHT22;11943;52.270;20.978;2023-06-24T12:39:43;23.20;64.70
23532;DHT22;11943;52.270;20.978;2023-06-24T12:42:09;23.40;66.20
23532;DHT22;11943;52.270;20.978;2023-06-24T12:44:34;23.50;65.50
23532;DHT22;11943;52.270;20.978;2023-06-24T12:47:00;23.60;65.00
23532;DHT22;11943;52.270;20.978;2023-06-24T12:49:25;23.70;64.70
23532;DHT22;11943;52.270;20.978;2023-06-24T12:51:51;23.90;65.60
23532;DHT22;11943;52.270;20.978;2023-06-24T12:54:18;23.80;66.00
23532;DHT22;11943;52.270;20.978;2023-06-24T12:56:43;23.90;66.60
23532;DHT22;11943;52.270;20.978;2023-06-24T12:59:09;24.10;66.30
23532;DHT22;11943;52.270;20.978;2023-06-24T13:01:34;24.10;66.90
23532;DHT22;11943;52.270;20.978;2023-06-24T13:04:00;24.20;67.80
23532;DHT22;11943;52.270;20.978;2023-06-24T13:06:26;24.30;67.00
23532;DHT22;11943;52.270;20.978;2023-06-24T13:08:51;24.40;68.30
23532;DHT22;11943;52.270;20.978;2023-06-24T13:11:17;24.50;67.10
23532;DHT22;11943;52.270;20.978;2023-06-24T13:13:43;24.60;66.20
23532;DHT22;11943;52.270;20.978;2023-06-24T13:16:08;24.50;64.60
23532;DHT22;11943;52.270;20.978;2023-06-24T13:18:34;24.30;65.00
23532;DHT22;11943;52.270;20.978;2023-06-24T13:20:59;24.20;65.20
23532;DHT22;11943;52.270;20.978;2023-06-24T13:23:25;24.20;65.60
23532;DHT22;11943;52.270;20.978;2023-06-24T13:25:51;24.20;65.90
23532;DHT22;11943;52.270;20.978;2023-06-24T13:28:16;24.20;67.10
23532;DHT22;11943;52.270;20.978;2023-06-24T13:30:42;24.30;65.90
23532;DHT22;11943;52.270;20.978;2023-06-24T13:33:08;24.30;64.40
23532;DHT22;11943;52.270;20.978;2023-06-24T13:35:33;24.30;63.60
23532;DHT22;11943;52.270;20.978;2023-06-24T13:37:59;24.10;62.10
23532;DHT22;11943;52.270;20.978;2023-06-24T13:40:25;24.00;62.50
23532;DHT22;11943;52.270;20.978;2023-06-24T13:42:50;24.10;62.60
23532;DHT22;11943;52.270;20.978;2023-06-24T13:45:16;24.10;60.90
23532;DHT22;11943;52.270;20.978;2023-06-24T13:47:42;24.10;59.50
23532;DHT22;11943;52.270;20.978;2023-06-24T13:50:08;24.00;60.00
23532;DHT22;11943;52.270;20.978;2023-06-24T13:52:34;23.90;59.80
23532;DHT22;11943;52.270;20.978;2023-06-24T13:55:00;23.70;59.50
23532;DHT22;11943;52.270;20.978;2023-06-24T13:57:25;23.40;61.00
23532;DHT22;11943;52.270;20.978;2023-06-24T13:59:51;23.40;61.10
23532;DHT22;11943;52.270;20.978;2023-06-24T14:02:17;23.20;61.70
23532;DHT22;11943;52.270;20.978;2023-06-24T14:04:42;23.10;63.30
23532;DHT22;11943;52.270;20.978;2023-06-24T14:07:08;23.10;64.20
23532;DHT22;11943;52.270;20.978;2023-06-24T14:09:34;23.00;63.10
23532;DHT22;11943;52.270;20.978;2023-06-24T14:12:00;23.00;64.10
23532;DHT22;11943;52.270;20.978;2023-06-24T14:14:26;22.90;64.50
23532;DHT22;11943;52.270;20.978;2023-06-24T14:16:52;23.00;65.70
23532;DHT22;11943;52.270;20.978;2023-06-24T14:19:17;22.90;65.30
23532;DHT22;11943;52.270;20.978;2023-06-24T14:21:44;22.80;64.70
23532;DHT22;11943;52.270;20.978;2023-06-24T14:24:10;22.70;65.50
23532;DHT22;11943;52.270;20.978;2023-06-24T14:26:37;22.60;66.10
23532;DHT22;11943;52.270;20.978;2023-06-24T14:29:03;22.50;66.30
23532;DHT22;11943;52.270;20.978;2023-06-24T14:31:28;22.50;67.00
23532;DHT22;11943;52.270;20.978;2023-06-24T14:33:54;22.50;67.30
23532;DHT22;11943;52.270;20.978;2023-06-24T14:36:20;22.50;67.50
23532;DHT22;11943;52.270;20.978;2023-06-24T14:38:45;22.30;68.80
23532;DHT22;11943;52.270;20.978;2023-06-24T14:41:11;22.30;69.70
23532;DHT22;11943;52.270;20.978;2023-06-24T14:43:37;22.20;71.20
23532;DHT22;11943;52.270;20.978;2023-06-24T14:46:02;22.10;72.80
23532;DHT22;11943;52.270;20.978;2023-06-24T14:48:28;22.20;73.40
23532;DHT22;11943;52.270;20.978;2023-06-24T14:50:54;22.20;74.40
23532;DHT22;11943;52.270;20.978;2023-06-24T14:53:19;22.10;74.30
23532;DHT22;11943;52.270;20.978;2023-06-24T14:55:45;22.00;74.80
23532;DHT22;11943;52.270;20.978;2023-06-24T14:58:11;22.00;75.50
23532;DHT22;11943;52.270;20.978;2023-06-24T15:00:37;21.90;77.30
23532;DHT22;11943;52.270;20.978;2023-06-24T15:03:03;21.70;79.70
23532;DHT22;11943;52.270;20.978;2023-06-24T15:05:29;21.60;81.60
23532;DHT22;11943;52.270;20.978;2023-06-24T15:07:54;21.60;84.30
23532;DHT22;11943;52.270;20.978;2023-06-24T15:10:20;21.40;88.40
23532;DHT22;11943;52.270;20.978;2023-06-24T15:12:45;21.40;90.40
23532;DHT22;11943;52.270;20.978;2023-06-24T15:15:11;21.30;92.00
23532;DHT22;11943;52.270;20.978;2023-06-24T15:17:37;21.30;93.60
23532;DHT22;11943;52.270;20.978;2023-06-24T15:20:07;21.20;94.70
23532;DHT22;11943;52.270;20.978;2023-06-24T15:22:34;21.10;95.10
23532;DHT22;11943;52.270;20.978;2023-06-24T15:24:59;21.20;95.80
23532;DHT22;11943;52.270;20.978;2023-06-24T15:27:25;21.10;95.70
23532;DHT22;11943;52.270;20.978;2023-06-24T15:29:51;21.00;96.20
23532;DHT22;11943;52.270;20.978;2023-06-24T15:32:16;21.00;95.90
23532;DHT22;11943;52.270;20.978;2023-06-24T15:34:42;20.90;95.30
23532;DHT22;11943;52.270;20.978;2023-06-24T15:37:08;20.90;95.00
23532;DHT22;11943;52.270;20.978;2023-06-24T15:39:33;21.00;94.80
23532;DHT22;11943;52.270;20.978;2023-06-24T15:41:59;20.90;94.80
23532;DHT22;11943;52.270;20.978;2023-06-24T15:44:25;21.00;95.10
23532;DHT22;11943;52.270;20.978;2023-06-24T15:46:50;21.00;93.30
23532;DHT22;11943;52.270;20.978;2023-06-24T15:49:18;21.00;92.80